createdAt,value
2022-11-07T00:05:01.166Z,4.25
2022-11-07T00:10:02.851Z,4.10
2022-11-07T00:15:06.036Z,5.07
2022-11-07T00:20:07.989Z,4.40
2022-11-07T00:25:09.625Z,3.75
2022-11-07T00:30:11.555Z,7.60
2022-11-07T00:35:13.172Z,4.60
2022-11-07T00:40:14.593Z,6.00
2022-11-07T00:45:16.109Z,4.07
2022-11-07T00:50:17.860Z,5.32
2022-11-07T00:55:19.429Z,5.15
2022-11-07T01:00:20.913Z,5.68
2022-11-07T01:05:22.290Z,6.18
2022-11-07T01:10:23.696Z,4.85
2022-11-07T01:15:25.294Z,4.57
2022-11-07T01:20:26.677Z,5.65
2022-11-07T01:25:28.117Z,4.55
2022-11-07T01:30:29.541Z,4.05
2022-11-07T01:35:32.712Z,3.38
2022-11-07T01:40:34.588Z,3.78
2022-11-07T01:45:36.129Z,4.20
2022-11-07T01:50:37.564Z,3.42
2022-11-07T01:55:38.995Z,3.92
2022-11-07T02:00:40.417Z,5.22
2022-11-07T02:05:46.937Z,5.30
2022-11-07T02:10:48.560Z,3.88
2022-11-07T02:15:50.289Z,4.55
2022-11-07T02:20:52.220Z,3.17
2022-11-07T02:25:54.672Z,4.22
2022-11-07T02:30:56.067Z,2.80
2022-11-07T02:35:57.705Z,5.00
2022-11-07T02:41:06.723Z,4.20
2022-11-07T02:46:11.571Z,3.40
2022-11-07T02:51:13.875Z,3.42
2022-11-07T02:56:15.372Z,4.30
2022-11-07T03:01:16.860Z,4.18
2022-11-07T03:06:21.451Z,2.70
2022-11-07T03:11:22.870Z,4.22
2022-11-07T03:16:24.296Z,4.20
2022-11-07T03:21:25.748Z,2.92
2022-11-07T03:26:27.180Z,3.47
2022-11-07T03:31:28.572Z,2.95
2022-11-07T03:36:30.052Z,2.55
2022-11-07T03:41:31.455Z,1.52
2022-11-07T03:46:32.863Z,2.53
2022-11-07T03:51:34.325Z,3.15
2022-11-07T03:56:35.707Z,1.48
2022-11-07T04:01:37.224Z,2.28
2022-11-07T04:06:38.995Z,1.75
2022-11-07T04:11:40.362Z,1.40
2022-11-07T04:16:43.175Z,1.50
2022-11-07T04:21:44.585Z,1.67
2022-11-07T04:26:45.969Z,1.70
2022-11-07T04:31:47.349Z,1.85
2022-11-07T04:36:48.749Z,1.60
2022-11-07T04:41:50.132Z,2.15
2022-11-07T04:46:51.542Z,2.45
2022-11-07T04:51:56.856Z,1.48
2022-11-07T04:56:58.248Z,1.48
2022-11-07T05:01:59.779Z,1.27
2022-11-07T05:07:01.261Z,1.88
2022-11-07T05:12:02.900Z,1.20
2022-11-07T05:17:04.314Z,1.73
2022-11-07T05:22:05.696Z,1.50
2022-11-07T05:27:07.107Z,1.52
2022-11-07T05:32:08.496Z,4.10
2022-11-07T05:37:11.476Z,3.10
2022-11-07T05:42:12.860Z,1.95
2022-11-07T05:47:14.585Z,2.22
2022-11-07T05:52:15.979Z,1.70
2022-11-07T05:57:17.373Z,2.28
2022-11-07T06:02:19.109Z,2.05
2022-11-07T06:07:20.671Z,3.05
2022-11-07T06:12:22.069Z,2.05
2022-11-07T06:17:23.573Z,2.35
2022-11-07T06:22:25.360Z,1.55
2022-11-07T06:27:26.734Z,2.45
2022-11-07T06:32:28.567Z,2.55
2022-11-07T06:37:29.957Z,2.20
2022-11-07T06:42:31.379Z,3.97
2022-11-07T06:47:32.754Z,2.55
2022-11-07T06:52:34.196Z,4.40
2022-11-07T06:57:35.620Z,3.40
2022-11-07T07:02:57.458Z,3.33
2022-11-07T07:07:58.390Z,4.30
2022-11-07T07:13:00.851Z,3.00
2022-11-07T07:18:03.109Z,3.15
2022-11-07T07:23:05.850Z,2.55
2022-11-07T07:28:07.476Z,2.90
2022-11-07T07:33:08.883Z,2.45
2022-11-07T07:38:11.549Z,2.75
2022-11-07T07:43:13.074Z,2.63
2022-11-07T07:48:14.774Z,2.65
2022-11-07T07:53:16.856Z,3.60
2022-11-07T07:58:18.487Z,2.85
2022-11-07T08:03:20.302Z,2.35
2022-11-07T08:08:21.961Z,3.05
2022-11-07T08:13:25.033Z,3.72
2022-11-07T08:18:26.535Z,3.28
2022-11-07T08:23:27.998Z,2.80
2022-11-07T08:28:31.707Z,2.85
2022-11-07T08:33:33.334Z,2.95
2022-11-07T08:38:35.798Z,2.40
2022-11-07T08:43:37.172Z,3.67
2022-11-07T08:48:39.791Z,3.03
2022-11-07T08:53:41.297Z,3.13
2022-11-07T08:58:42.677Z,2.60
2022-11-07T09:03:47.541Z,2.45
2022-11-07T09:08:50.506Z,3.65
2022-11-07T09:13:53.385Z,3.08
2022-11-07T09:18:55.228Z,1.90
2022-11-07T09:23:56.638Z,1.55
2022-11-07T09:29:01.136Z,2.95
2022-11-07T09:34:02.872Z,2.22
2022-11-07T09:39:04.398Z,0.68
2022-11-07T09:44:57.777Z,1.40
2022-11-07T09:50:11.797Z,1.83
2022-11-07T09:55:17.145Z,0.77
2022-11-07T10:00:20.521Z,1.10
2022-11-07T10:05:53.960Z,1.50
2022-11-07T10:11:19.573Z,3.58
2022-11-07T10:16:46.121Z,0.85
2022-11-07T10:22:06.273Z,0.85
2022-11-07T10:27:12.114Z,1.67
2022-11-07T10:32:24.759Z,0.63
2022-11-07T10:37:26.215Z,1.58
2022-11-07T10:42:31.129Z,1.52
2022-11-07T10:47:32.516Z,1.98
2022-11-07T10:52:33.951Z,1.23
2022-11-07T10:57:35.808Z,1.10
2022-11-07T11:02:47.063Z,2.17
2022-11-07T11:07:48.773Z,0.80
2022-11-07T11:12:50.524Z,1.35
2022-11-07T11:18:05.743Z,3.38
2022-11-07T11:23:19.607Z,0.43
2022-11-07T11:28:28.954Z,0.95
2022-11-07T11:33:38.663Z,0.55
2022-11-07T11:38:40.834Z,0.57
2022-11-07T11:43:49.332Z,1.42
2022-11-07T11:48:56.954Z,3.60
2022-11-07T11:59:09.410Z,0.30
2022-11-07T12:04:33.672Z,0.65
2022-11-07T12:09:56.913Z,3.25
2022-11-07T12:15:41.142Z,0.88
2022-11-07T12:20:55.543Z,1.17
2022-11-07T12:26:14.785Z,1.15
2022-11-07T12:31:28.217Z,0.32
2022-11-07T12:36:45.540Z,1.13
2022-11-07T12:42:08.470Z,0.57
2022-11-07T12:47:37.545Z,0.55
2022-11-07T12:53:11.852Z,2.35
2022-11-07T12:58:28.979Z,0.95
2022-11-07T13:03:59.261Z,1.00
2022-11-07T13:09:22.443Z,0.52
2022-11-07T13:14:38.161Z,1.23
2022-11-07T13:19:43.089Z,0.25
2022-11-07T13:25:07.506Z,1.02
2022-11-07T13:30:13.601Z,1.67
2022-11-07T13:35:29.297Z,0.50
2022-11-07T13:40:39.867Z,3.15
2022-11-07T13:46:02.638Z,0.52
2022-11-07T13:51:31.560Z,0.75
2022-11-07T13:56:40.067Z,0.90
2022-11-07T14:01:45.581Z,0.70
2022-11-07T14:06:49.242Z,1.73
2022-11-07T14:11:53.173Z,0.90
2022-11-07T14:17:00.499Z,1.20
2022-11-07T14:22:02.206Z,1.60
2022-11-07T14:27:13.969Z,1.00
2022-11-07T14:32:16.958Z,1.77
2022-11-07T14:37:21.872Z,1.17
2022-11-07T14:42:24.686Z,1.27
2022-11-07T14:47:32.721Z,2.25
2022-11-07T14:52:42.426Z,1.43
2022-11-07T14:57:43.865Z,1.23
2022-11-07T15:02:48.628Z,0.77
2022-11-07T15:07:50.408Z,2.17
2022-11-07T15:12:56.647Z,2.95
2022-11-07T15:18:03.965Z,2.30
2022-11-07T15:23:14.193Z,1.55
2022-11-07T15:28:26.165Z,1.30
2022-11-07T15:33:31.278Z,2.03
2022-11-07T15:38:32.707Z,3.50
2022-11-07T15:43:34.159Z,2.00
2022-11-07T15:48:40.752Z,1.90
2022-11-07T15:53:42.778Z,1.60
2022-11-07T15:58:44.229Z,1.85
2022-11-07T16:03:45.704Z,2.13
2022-11-07T16:08:47.189Z,1.92
2022-11-07T16:13:48.611Z,4.00
2022-11-07T16:18:52.079Z,2.90
2022-11-07T16:23:53.495Z,2.15
2022-11-07T16:28:54.966Z,1.92
2022-11-07T16:33:56.348Z,1.50
2022-11-07T16:38:57.901Z,3.33
2022-11-07T16:43:59.860Z,3.88
2022-11-07T16:49:13.425Z,7.20
2022-11-07T16:54:14.866Z,4.30
2022-11-07T16:59:23.527Z,3.03
2022-11-07T17:04:24.910Z,2.78
2022-11-07T17:09:26.313Z,5.10
2022-11-07T17:14:27.705Z,2.22
2022-11-07T17:19:29.144Z,4.32
2022-11-07T17:24:30.891Z,4.93
2022-11-07T17:29:32.330Z,3.08
2022-11-07T17:34:33.733Z,4.20
2022-11-07T17:39:35.156Z,3.80
2022-11-07T17:44:36.611Z,7.60
2022-11-07T17:49:38.029Z,6.18
2022-11-07T17:54:39.449Z,4.78
2022-11-07T17:59:45.630Z,5.20
2022-11-07T18:04:47.564Z,4.13
2022-11-07T18:09:48.969Z,3.25
2022-11-07T18:14:50.384Z,4.10
2022-11-07T18:19:51.840Z,5.45
2022-11-07T18:24:53.277Z,2.80
2022-11-07T18:29:54.726Z,3.85
2022-11-07T18:34:56.245Z,3.30
2022-11-07T18:39:57.696Z,3.47
2022-11-07T18:44:59.153Z,4.28
2022-11-07T18:50:00.587Z,4.90
2022-11-07T18:55:01.979Z,3.22
2022-11-07T19:00:07.856Z,4.00
2022-11-07T19:05:12.080Z,4.43
2022-11-07T19:10:14.623Z,4.63
2022-11-07T19:15:16.077Z,5.20
2022-11-07T19:20:17.476Z,5.38
2022-11-07T19:25:18.867Z,5.95
2022-11-07T19:30:20.295Z,7.28
2022-11-07T19:35:21.688Z,5.20
2022-11-07T19:40:23.366Z,4.82
2022-11-07T19:45:25.732Z,6.10
2022-11-07T19:50:27.120Z,5.05
2022-11-07T19:55:28.545Z,4.70
2022-11-07T20:00:30.186Z,6.45
2022-11-07T20:05:31.646Z,6.05
2022-11-07T20:10:33.742Z,5.05
2022-11-07T20:15:39.228Z,5.93
2022-11-07T20:20:40.644Z,3.80
2022-11-07T20:25:42.968Z,6.10
2022-11-07T20:30:44.381Z,3.45
2022-11-07T20:35:45.804Z,5.78
2022-11-07T20:40:47.208Z,6.45
2022-11-07T20:45:49.085Z,4.65
2022-11-07T20:50:50.502Z,5.38
2022-11-07T20:55:51.923Z,3.75
2022-11-07T21:00:53.398Z,4.00
2022-11-07T21:05:55.157Z,5.43
2022-11-07T21:10:56.580Z,4.53
2022-11-07T21:15:57.987Z,4.50
2022-11-07T21:21:10.900Z,4.70
2022-11-07T21:26:18.282Z,4.35
2022-11-07T21:31:23.823Z,6.70
2022-11-07T21:36:27.903Z,3.50
2022-11-07T21:41:29.938Z,3.97
2022-11-07T21:46:31.893Z,5.97
2022-11-07T21:51:34.885Z,3.85
2022-11-07T21:56:38.497Z,4.15
2022-11-07T22:01:41.197Z,4.07
2022-11-07T22:06:44.837Z,4.55
2022-11-07T22:11:47.109Z,4.45
2022-11-07T22:16:49.840Z,5.53
2022-11-07T22:21:51.314Z,5.13
2022-11-07T22:26:55.672Z,5.88
2022-11-07T22:31:57.238Z,3.42
2022-11-07T22:36:58.655Z,3.10
2022-11-07T22:42:00.069Z,3.67
2022-11-07T22:47:01.462Z,5.25
2022-11-07T22:52:02.898Z,4.20
2022-11-07T22:57:04.337Z,4.53
2022-11-07T23:02:05.853Z,4.50
2022-11-07T23:07:07.360Z,5.22
2022-11-07T23:12:08.861Z,3.20
2022-11-07T23:17:10.268Z,3.28
2022-11-07T23:22:11.679Z,3.65
2022-11-07T23:27:13.137Z,3.63
2022-11-07T23:32:14.551Z,4.50
2022-11-07T23:37:15.952Z,3.95
2022-11-07T23:42:17.382Z,4.78
2022-11-07T23:47:18.813Z,2.58
2022-11-07T23:52:20.653Z,3.35
2022-11-07T23:57:22.156Z,4.03
